createdAt,value
2023-03-05T00:01:33.314Z,100172.69
2023-03-05T00:04:36.114Z,100172.19
2023-03-05T00:07:38.759Z,100168.09
2023-03-05T00:10:41.330Z,100182.78
2023-03-05T00:13:43.919Z,100182.41
2023-03-05T00:16:46.594Z,100182.41
2023-03-05T00:19:49.126Z,100183.66
2023-03-05T00:22:51.685Z,100195.94
2023-03-05T00:25:54.437Z,100187.28
2023-03-05T00:28:58.221Z,100179.69
2023-03-05T00:32:00.826Z,100182.34
2023-03-05T00:35:03.578Z,100176.78
2023-03-05T00:38:06.228Z,100157.09
2023-03-05T00:41:08.919Z,100179.38
2023-03-05T00:44:11.729Z,100176.75
2023-03-05T00:47:14.336Z,100164.31
2023-03-05T00:50:17.188Z,100155.81
2023-03-05T00:53:19.993Z,100174.16
2023-03-05T00:56:23.396Z,100170.91
2023-03-05T00:59:26.027Z,100171.72
2023-03-05T01:02:28.660Z,100169.56
2023-03-05T01:05:31.909Z,100157.97
2023-03-05T01:08:35.155Z,100160.06
2023-03-05T01:11:37.824Z,100165.75
2023-03-05T01:14:40.411Z,100160.84
2023-03-05T01:17:42.970Z,100148.97
2023-03-05T01:20:46.234Z,100157.25
2023-03-05T01:23:48.882Z,100142.78
2023-03-05T01:26:51.732Z,100152.72
2023-03-05T01:29:54.290Z,100151.22
2023-03-05T01:32:57.132Z,100139.09
2023-03-05T01:35:59.890Z,100147.06
2023-03-05T01:39:02.914Z,100145.03
2023-03-05T01:42:07.418Z,100146.81
2023-03-05T01:45:13.714Z,100146.59
2023-03-05T01:48:16.394Z,100136.25
2023-03-05T01:51:20.303Z,100142.84
2023-03-05T01:54:26.838Z,100142.56
2023-03-05T01:57:33.797Z,100142.41
2023-03-05T02:00:41.384Z,100145.47
2023-03-05T02:03:44.145Z,100134.00
2023-03-05T02:06:47.033Z,100146.22
2023-03-05T02:09:49.775Z,100123.59
2023-03-05T02:12:54.563Z,100124.06
2023-03-05T02:15:59.519Z,100126.75
2023-03-05T02:19:04.642Z,100126.50
2023-03-05T02:22:14.233Z,100133.94
2023-03-05T02:25:23.100Z,100120.16
2023-03-05T02:28:47.067Z,100132.34
2023-03-05T02:31:49.861Z,100136.19
2023-03-05T02:34:52.848Z,100119.97
2023-03-05T02:37:55.644Z,100116.59
2023-03-05T02:40:58.572Z,100128.03
2023-03-05T02:44:01.359Z,100124.16
2023-03-05T02:47:04.063Z,100131.88
2023-03-05T02:50:10.394Z,100122.94
2023-03-05T02:53:13.457Z,100113.66
2023-03-05T02:56:16.157Z,100118.38
2023-03-05T02:59:18.965Z,100115.03
2023-03-05T03:02:21.840Z,100110.66
2023-03-05T03:05:24.617Z,100117.75
2023-03-05T03:08:27.127Z,100121.47
2023-03-05T03:11:29.776Z,100125.47
2023-03-05T03:14:37.862Z,100127.22
2023-03-05T03:17:40.394Z,100106.97
2023-03-05T03:20:43.022Z,100119.06
2023-03-05T03:23:46.135Z,100118.31
2023-03-05T03:26:50.026Z,100120.13
2023-03-05T03:29:52.621Z,100127.50
2023-03-05T03:32:55.225Z,100124.88
2023-03-05T03:35:57.912Z,100127.78
2023-03-05T03:39:00.613Z,100118.44
2023-03-05T03:42:03.304Z,100117.72
2023-03-05T03:45:06.635Z,100129.16
2023-03-05T03:48:09.639Z,100125.44
2023-03-05T03:51:12.232Z,100118.81
2023-03-05T03:54:16.010Z,100130.03
2023-03-05T03:57:18.709Z,100118.91
2023-03-05T04:00:21.618Z,100124.88
2023-03-05T04:03:24.245Z,100111.81
2023-03-05T04:06:26.873Z,100120.72
2023-03-05T04:09:29.442Z,100113.53
2023-03-05T04:12:32.066Z,100112.81
2023-03-05T04:15:34.994Z,100114.47
2023-03-05T04:18:37.756Z,100116.06
2023-03-05T04:21:40.360Z,100107.19
2023-03-05T04:24:43.851Z,100109.09
2023-03-05T04:27:46.406Z,100112.91
2023-03-05T04:30:49.088Z,100089.72
2023-03-05T04:33:51.783Z,100104.66
2023-03-05T04:36:54.399Z,100093.88
2023-03-05T04:39:57.087Z,100095.41
2023-03-05T04:42:59.712Z,100094.50
2023-03-05T04:46:02.306Z,100093.78
2023-03-05T04:49:04.832Z,100093.41
2023-03-05T04:52:07.643Z,100097.88
2023-03-05T04:55:11.940Z,100095.25
2023-03-05T04:58:14.548Z,100099.13
2023-03-05T05:01:17.125Z,100099.41
2023-03-05T05:04:19.681Z,100106.19
2023-03-05T05:07:22.298Z,100103.47
2023-03-05T05:10:25.859Z,100114.19
2023-03-05T05:13:29.071Z,100109.91
2023-03-05T05:16:31.686Z,100110.91
2023-03-05T05:19:35.450Z,100114.97
2023-03-05T05:22:38.189Z,100118.16
2023-03-05T05:25:40.850Z,100114.19
2023-03-05T05:28:43.851Z,100095.31
2023-03-05T05:31:46.551Z,100106.75
2023-03-05T05:34:49.217Z,100120.25
2023-03-05T05:37:51.955Z,100113.72
2023-03-05T05:40:54.527Z,100114.91
2023-03-05T05:43:57.205Z,100117.63
2023-03-05T05:46:59.836Z,100114.53
2023-03-05T05:50:02.554Z,100115.38
2023-03-05T05:53:05.280Z,100105.56
2023-03-05T05:56:09.556Z,100124.50
2023-03-05T05:59:12.154Z,100119.97
2023-03-05T06:02:14.839Z,100110.81
2023-03-05T06:05:17.474Z,100112.63
2023-03-05T06:08:20.294Z,100120.25
2023-03-05T06:11:23.282Z,100130.19
2023-03-05T06:14:25.815Z,100122.75
2023-03-05T06:17:30.705Z,100093.44
2023-03-05T06:20:33.560Z,100116.19
2023-03-05T06:23:36.551Z,100108.13
2023-03-05T06:26:39.591Z,100121.28
2023-03-05T06:29:42.113Z,100127.53
2023-03-05T06:32:44.759Z,100123.91
2023-03-05T06:35:47.314Z,100120.50
2023-03-05T06:38:53.129Z,100119.38
2023-03-05T06:41:56.006Z,100120.72
2023-03-05T06:44:58.621Z,100129.88
2023-03-05T06:48:01.178Z,100133.66
2023-03-05T06:51:04.212Z,100133.03
2023-03-05T06:54:09.903Z,100137.09
2023-03-05T06:57:13.696Z,100128.38
2023-03-05T07:00:16.496Z,100129.09
2023-03-05T07:03:19.088Z,100140.31
2023-03-05T07:06:22.749Z,100137.25
2023-03-05T07:09:25.367Z,100137.84
2023-03-05T07:12:28.045Z,100134.28
2023-03-05T07:15:30.667Z,100133.28
2023-03-05T07:18:33.262Z,100134.16
2023-03-05T07:21:39.459Z,100134.63
2023-03-05T07:24:42.438Z,100138.66
2023-03-05T07:27:44.990Z,100131.16
2023-03-05T07:31:01.841Z,100138.75
2023-03-05T07:34:04.587Z,100144.59
2023-03-05T07:37:07.314Z,100143.19
2023-03-05T07:40:10.839Z,100130.38
2023-03-05T07:43:13.511Z,100141.63
2023-03-05T07:46:17.858Z,100132.91
2023-03-05T07:49:20.512Z,100122.22
2023-03-05T07:52:23.081Z,100137.41
2023-03-05T07:55:25.745Z,100137.84
2023-03-05T07:58:28.361Z,100131.00
2023-03-05T08:01:32.106Z,100125.28
2023-03-05T08:04:34.958Z,100123.56
2023-03-05T08:07:37.652Z,100108.63
2023-03-05T08:10:40.278Z,100120.25
2023-03-05T08:13:45.208Z,100126.22
2023-03-05T08:16:52.245Z,100127.31
2023-03-05T08:19:57.927Z,100113.78
2023-03-05T08:23:01.228Z,100128.22
2023-03-05T08:26:12.121Z,100131.72
2023-03-05T08:29:14.720Z,100125.53
2023-03-05T08:32:17.366Z,100132.09
2023-03-05T08:35:21.074Z,100122.97
2023-03-05T08:38:23.680Z,100126.72
2023-03-05T08:41:26.329Z,100122.72
2023-03-05T08:44:29.108Z,100113.06
2023-03-05T08:47:31.740Z,100101.97
2023-03-05T08:50:38.846Z,100092.91
2023-03-05T08:53:42.797Z,100108.19
2023-03-05T08:56:46.225Z,100092.56
2023-03-05T08:59:48.969Z,100098.66
2023-03-05T09:02:51.852Z,100090.53
2023-03-05T09:05:54.603Z,100100.91
2023-03-05T09:08:57.268Z,100099.47
2023-03-05T09:12:00.964Z,100099.09
2023-03-05T09:15:07.245Z,100089.72
2023-03-05T09:18:09.893Z,100079.38
2023-03-05T09:21:15.597Z,100082.81
2023-03-05T09:24:18.711Z,100078.97
2023-03-05T09:27:21.463Z,100078.72
2023-03-05T09:30:24.138Z,100082.41
2023-03-05T09:33:26.772Z,100087.91
2023-03-05T09:36:30.590Z,100088.72
2023-03-05T09:39:33.147Z,100094.97
2023-03-05T09:43:14.387Z,100093.38
2023-03-05T09:46:44.049Z,100081.63
2023-03-05T09:50:26.013Z,100068.94
2023-03-05T09:53:28.691Z,100079.91
2023-03-05T09:56:36.800Z,100066.84
2023-03-05T09:59:50.160Z,100068.47
2023-03-05T10:02:55.960Z,100060.31
2023-03-05T10:06:17.407Z,100048.69
2023-03-05T10:09:44.320Z,100055.25
2023-03-05T10:12:52.141Z,100060.63
2023-03-05T10:16:17.806Z,100057.16
2023-03-05T10:19:54.277Z,100063.06
2023-03-05T10:23:08.900Z,100049.81
2023-03-05T10:26:26.197Z,100035.13
2023-03-05T10:29:31.705Z,100039.91
2023-03-05T10:33:04.137Z,100033.31
2023-03-05T10:36:16.162Z,100020.28
2023-03-05T10:39:18.590Z,100030.75
2023-03-05T10:42:34.342Z,100024.97
2023-03-05T10:45:42.876Z,100024.78
2023-03-05T10:48:47.500Z,100029.88
2023-03-05T10:52:18.369Z,100019.28
2023-03-05T10:55:22.508Z,99991.34
2023-03-05T10:58:25.572Z,100013.59
2023-03-05T11:01:29.740Z,99996.53
2023-03-05T11:04:38.376Z,100001.16
2023-03-05T11:07:40.970Z,99986.75
2023-03-05T11:10:43.680Z,100005.56
2023-03-05T11:13:56.439Z,99990.94
2023-03-05T11:17:00.557Z,99989.97
2023-03-05T11:20:28.170Z,99984.31
2023-03-05T11:23:30.748Z,99977.03
2023-03-05T11:26:33.822Z,99971.56
2023-03-05T11:29:47.140Z,99975.22
2023-03-05T11:32:49.757Z,99962.59
2023-03-05T11:36:05.268Z,99946.28
2023-03-05T11:39:07.869Z,99965.16
2023-03-05T11:42:25.525Z,99953.63
2023-03-05T11:45:30.568Z,99963.06
2023-03-05T11:48:37.623Z,99951.78
2023-03-05T11:51:52.592Z,99943.59
2023-03-05T11:55:32.893Z,99940.47
2023-03-05T11:58:44.133Z,99928.03
2023-03-05T12:01:55.554Z,99928.94
2023-03-05T12:05:00.156Z,99934.75
2023-03-05T12:08:03.530Z,99925.88
2023-03-05T12:11:13.989Z,99928.22
2023-03-05T12:14:27.830Z,99927.06
2023-03-05T12:17:58.962Z,99921.56
2023-03-05T12:21:27.385Z,99922.59
2023-03-05T12:24:30.080Z,99915.06
2023-03-05T12:27:37.053Z,99898.41
2023-03-05T12:30:42.707Z,99909.00
2023-03-05T12:33:45.309Z,99914.53
2023-03-05T12:36:49.211Z,99897.31
2023-03-05T12:40:12.381Z,99898.59
2023-03-05T12:43:32.377Z,99895.25
2023-03-05T12:46:42.921Z,99897.06
2023-03-05T12:49:47.019Z,99897.53
2023-03-05T12:52:49.734Z,99886.97
2023-03-05T12:56:12.862Z,99887.34
2023-03-05T12:59:19.842Z,99883.31
2023-03-05T13:02:44.473Z,99880.84
2023-03-05T13:05:56.191Z,99892.28
2023-03-05T13:09:01.545Z,99880.03
2023-03-05T13:12:11.761Z,99880.28
2023-03-05T13:15:15.566Z,99869.94
2023-03-05T13:18:31.329Z,99869.88
2023-03-05T13:21:35.449Z,99876.44
2023-03-05T13:24:38.281Z,99869.16
2023-03-05T13:27:41.791Z,99869.75
2023-03-05T13:31:18.747Z,99869.94
2023-03-05T13:34:46.843Z,99870.31
2023-03-05T13:37:50.432Z,99868.16
2023-03-05T13:41:11.373Z,99870.63
2023-03-05T13:44:21.865Z,99869.81
2023-03-05T13:47:31.032Z,99856.22
2023-03-05T13:50:39.525Z,99856.69
2023-03-05T13:53:42.287Z,99851.50
2023-03-05T13:56:56.645Z,99854.16
2023-03-05T14:00:00.534Z,99848.91
2023-03-05T14:03:23.248Z,99844.41
2023-03-05T14:06:28.517Z,99832.25
2023-03-05T14:09:32.390Z,99833.09
2023-03-05T14:12:43.679Z,99831.84
2023-03-05T14:16:13.143Z,99841.97
2023-03-05T14:19:36.787Z,99829.81
2023-03-05T14:22:41.441Z,99818.81
2023-03-05T14:25:44.153Z,99832.25
2023-03-05T14:29:11.129Z,99820.06
2023-03-05T14:32:33.302Z,99822.91
2023-03-05T14:35:36.789Z,99831.84
2023-03-05T14:38:41.716Z,99809.34
2023-03-05T14:41:44.864Z,99814.63
2023-03-05T14:44:47.634Z,99813.00
2023-03-05T14:47:51.191Z,99806.31
2023-03-05T14:50:57.205Z,99802.22
2023-03-05T14:54:00.123Z,99806.94
2023-03-05T14:57:04.791Z,99810.16
2023-03-05T15:00:24.566Z,99803.47
2023-03-05T15:03:28.157Z,99791.72
2023-03-05T15:06:34.332Z,99787.44
2023-03-05T15:09:37.905Z,99772.63
2023-03-05T15:12:40.642Z,99789.28
2023-03-05T15:15:45.181Z,99788.25
2023-03-05T15:18:47.911Z,99775.03
2023-03-05T15:21:50.617Z,99782.34
2023-03-05T15:24:53.348Z,99766.94
2023-03-05T15:27:55.913Z,99770.97
2023-03-05T15:31:00.279Z,99787.63
2023-03-05T15:34:03.565Z,99777.50
2023-03-05T15:37:06.438Z,99773.25
2023-03-05T15:40:09.885Z,99785.00
2023-03-05T15:43:12.809Z,99784.25
2023-03-05T15:46:15.289Z,99782.41
2023-03-05T15:49:18.392Z,99785.69
2023-03-05T15:52:21.025Z,99783.06
2023-03-05T15:55:23.720Z,99784.06
2023-03-05T15:58:26.496Z,99785.72
2023-03-05T16:01:29.250Z,99783.06
2023-03-05T16:04:32.190Z,99782.25
2023-03-05T16:07:36.921Z,99789.59
2023-03-05T16:10:41.125Z,99778.00
2023-03-05T16:13:44.034Z,99795.91
2023-03-05T16:16:46.920Z,99795.91
2023-03-05T16:19:52.938Z,99798.78
2023-03-05T16:22:55.555Z,99793.69
2023-03-05T16:25:59.687Z,99790.06
2023-03-05T16:29:02.481Z,99802.84
2023-03-05T16:32:05.796Z,99802.44
2023-03-05T16:35:12.020Z,99796.38
2023-03-05T16:38:15.420Z,99791.50
2023-03-05T16:41:18.682Z,99803.84
2023-03-05T16:44:21.384Z,99799.59
2023-03-05T16:47:24.116Z,99809.34
2023-03-05T16:50:26.858Z,99814.22
2023-03-05T16:53:30.567Z,99812.81
2023-03-05T16:56:33.500Z,99798.56
2023-03-05T16:59:37.389Z,99807.91
2023-03-05T17:02:40.121Z,99825.97
2023-03-05T17:05:42.874Z,99820.50
2023-03-05T17:08:46.761Z,99831.25
2023-03-05T17:11:49.643Z,99834.66
2023-03-05T17:14:52.452Z,99843.41
2023-03-05T17:17:55.148Z,99838.72
2023-03-05T17:20:58.340Z,99835.91
2023-03-05T17:24:01.750Z,99842.56
2023-03-05T17:27:04.553Z,99839.09
2023-03-05T17:30:08.621Z,99843.59
2023-03-05T17:33:12.137Z,99844.34
2023-03-05T17:36:20.923Z,99847.59
2023-03-05T17:39:23.780Z,99845.72
2023-03-05T17:42:27.129Z,99847.56
2023-03-05T17:45:29.971Z,99828.22
2023-03-05T17:48:34.199Z,99853.38
2023-03-05T17:51:37.888Z,99865.09
2023-03-05T17:54:40.656Z,99862.22
2023-03-05T17:57:44.304Z,99860.75
2023-03-05T18:00:47.195Z,99855.47
2023-03-05T18:03:50.143Z,99856.28
2023-03-05T18:06:52.921Z,99845.06
2023-03-05T18:09:55.632Z,99857.03
2023-03-05T18:12:58.359Z,99846.66
2023-03-05T18:16:01.307Z,99854.19
2023-03-05T18:19:04.189Z,99832.66
2023-03-05T18:22:07.001Z,99844.81
2023-03-05T18:25:11.279Z,99845.34
2023-03-05T18:28:15.388Z,99849.97
2023-03-05T18:31:18.567Z,99844.47
2023-03-05T18:34:21.521Z,99849.13
2023-03-05T18:37:24.315Z,99844.00
2023-03-05T18:40:30.121Z,99845.88
2023-03-05T18:43:32.930Z,99849.06
2023-03-05T18:46:35.686Z,99845.63
2023-03-05T18:49:38.502Z,99844.81
2023-03-05T18:52:44.785Z,99844.75
2023-03-05T18:55:48.358Z,99842.13
2023-03-05T18:58:53.153Z,99845.97
2023-03-05T19:01:55.979Z,99843.28
2023-03-05T19:04:59.461Z,99842.03
2023-03-05T19:08:02.450Z,99846.69
2023-03-05T19:11:18.535Z,99836.53
2023-03-05T19:14:21.153Z,99822.22
2023-03-05T19:17:23.895Z,99833.59
2023-03-05T19:20:26.693Z,99842.88
2023-03-05T19:23:29.524Z,99841.78
2023-03-05T19:26:32.398Z,99836.94
2023-03-05T19:29:37.638Z,99836.75
2023-03-05T19:32:41.866Z,99848.09
2023-03-05T19:35:44.614Z,99843.44
2023-03-05T19:38:48.649Z,99843.19
2023-03-05T19:41:52.443Z,99838.56
2023-03-05T19:44:55.015Z,99836.28
2023-03-05T19:47:57.811Z,99836.34
2023-03-05T19:51:00.407Z,99832.31
2023-03-05T19:54:06.307Z,99839.56
2023-03-05T19:57:09.085Z,99835.22
2023-03-05T20:00:12.481Z,99839.22
2023-03-05T20:03:15.510Z,99842.69
2023-03-05T20:06:19.272Z,99831.34
2023-03-05T20:09:21.955Z,99838.06
2023-03-05T20:12:24.924Z,99838.09
2023-03-05T20:15:29.420Z,99828.63
2023-03-05T20:18:32.185Z,99818.19
2023-03-05T20:21:40.799Z,99828.72
2023-03-05T20:24:43.549Z,99825.66
2023-03-05T20:27:46.328Z,99824.09
2023-03-05T20:30:54.189Z,99829.28
2023-03-05T20:33:58.224Z,99826.97
2023-03-05T20:37:01.079Z,99816.63
2023-03-05T20:40:04.201Z,99817.41
2023-03-05T20:43:06.957Z,99820.03
2023-03-05T20:46:21.587Z,99816.78
2023-03-05T20:49:24.451Z,99817.34
2023-03-05T20:52:27.036Z,99815.25
2023-03-05T20:55:30.597Z,99816.09
2023-03-05T20:58:33.272Z,99812.91
2023-03-05T21:01:39.190Z,99811.13
2023-03-05T21:04:42.056Z,99805.81
2023-03-05T21:07:44.616Z,99800.16
2023-03-05T21:10:47.394Z,99808.69
2023-03-05T21:13:50.111Z,99806.78
2023-03-05T21:16:52.822Z,99802.09
2023-03-05T21:19:55.574Z,99805.72
2023-03-05T21:22:58.835Z,99800.47
2023-03-05T21:26:01.941Z,99797.66
2023-03-05T21:29:04.752Z,99794.22
2023-03-05T21:32:08.519Z,99796.47
2023-03-05T21:35:19.512Z,99797.34
2023-03-05T21:38:23.289Z,99785.16
2023-03-05T21:41:27.639Z,99796.47
2023-03-05T21:44:30.233Z,99797.22
2023-03-05T21:47:34.177Z,99796.97
2023-03-05T21:50:39.886Z,99782.56
2023-03-05T21:53:42.514Z,99795.47
2023-03-05T21:56:45.968Z,99787.50
2023-03-05T21:59:48.760Z,99785.59
2023-03-05T22:02:51.853Z,99789.66
2023-03-05T22:05:54.856Z,99777.56
2023-03-05T22:08:57.490Z,99787.72
2023-03-05T22:12:00.124Z,99790.94
2023-03-05T22:15:02.906Z,99790.28
2023-03-05T22:18:05.618Z,99783.16
2023-03-05T22:21:19.170Z,99788.16
2023-03-05T22:24:22.374Z,99789.34
2023-03-05T22:27:24.980Z,99782.56
2023-03-05T22:30:27.752Z,99779.91
2023-03-05T22:33:30.740Z,99780.59
2023-03-05T22:36:33.291Z,99784.03
2023-03-05T22:39:35.768Z,99772.28
2023-03-05T22:42:38.330Z,99776.09
2023-03-05T22:45:41.522Z,99774.44
2023-03-05T22:48:44.729Z,99769.03
2023-03-05T22:51:47.314Z,99774.66
2023-03-05T22:54:50.023Z,99754.06
2023-03-05T22:57:52.568Z,99768.44
2023-03-05T23:00:55.228Z,99772.00
2023-03-05T23:04:40.245Z,99767.56
2023-03-05T23:07:46.026Z,99763.91
2023-03-05T23:10:48.971Z,99757.22
2023-03-05T23:13:51.719Z,99734.25
2023-03-05T23:16:54.243Z,99725.28
2023-03-05T23:19:56.842Z,99757.56
2023-03-05T23:22:59.694Z,99749.63
2023-03-05T23:26:02.348Z,99757.06
2023-03-05T23:29:05.094Z,99751.44
2023-03-05T23:32:07.714Z,99746.72
2023-03-05T23:35:12.433Z,99744.75
2023-03-05T23:38:15.399Z,99745.53
2023-03-05T23:41:17.956Z,99748.16
2023-03-05T23:44:20.549Z,99742.47
2023-03-05T23:47:23.113Z,99743.81
2023-03-05T23:50:31.748Z,99747.81
2023-03-05T23:53:34.270Z,99741.66
2023-03-05T23:56:36.788Z,99738.16
2023-03-05T23:59:39.423Z,99751.81
